createdAt,value
2022-11-15T00:02:15.354Z,4.72
2022-11-15T00:04:41.575Z,4.71
2022-11-15T00:07:07.825Z,4.57
2022-11-15T00:09:34.085Z,4.70
2022-11-15T00:12:00.297Z,4.70
2022-11-15T00:14:26.496Z,4.51
2022-11-15T00:16:52.712Z,4.60
2022-11-15T00:19:18.920Z,4.52
2022-11-15T00:21:45.125Z,4.56
2022-11-15T00:24:11.364Z,4.67
2022-11-15T00:26:37.570Z,4.61
2022-11-15T00:29:03.784Z,4.70
2022-11-15T00:31:29.990Z,4.67
2022-11-15T00:33:56.210Z,4.69
2022-11-15T00:36:22.429Z,4.71
2022-11-15T00:38:48.641Z,4.62
2022-11-15T00:41:14.836Z,4.63
2022-11-15T00:43:41.231Z,4.86
2022-11-15T00:46:07.645Z,4.74
2022-11-15T00:48:33.853Z,4.74
2022-11-15T00:51:00.073Z,4.88
2022-11-15T00:53:26.313Z,4.98
2022-11-15T00:55:52.516Z,5.09
2022-11-15T00:58:18.729Z,5.06
2022-11-15T01:00:44.966Z,5.00
2022-11-15T01:03:11.205Z,4.95
2022-11-15T01:05:38.017Z,4.89
2022-11-15T01:08:04.305Z,4.91
2022-11-15T01:10:30.501Z,4.89
2022-11-15T01:12:56.709Z,4.84
2022-11-15T01:15:22.905Z,4.88
2022-11-15T01:17:49.117Z,4.78
2022-11-15T01:20:15.325Z,4.62
2022-11-15T01:22:41.528Z,4.57
2022-11-15T01:25:07.723Z,4.66
2022-11-15T01:27:33.928Z,4.68
2022-11-15T01:30:00.138Z,4.65
2022-11-15T01:32:26.339Z,4.57
2022-11-15T01:34:52.550Z,4.52
2022-11-15T01:37:18.759Z,4.68
2022-11-15T01:39:44.951Z,4.63
2022-11-15T01:42:13.117Z,4.68
2022-11-15T01:44:43.595Z,4.78
2022-11-15T01:47:29.122Z,4.82
2022-11-15T01:50:15.575Z,4.88
2022-11-15T01:52:41.786Z,4.89
2022-11-15T01:55:15.163Z,4.83
2022-11-15T01:57:41.680Z,4.85
2022-11-15T02:00:08.146Z,4.89
2022-11-15T02:02:34.474Z,4.92
2022-11-15T02:05:00.674Z,4.97
2022-11-15T02:07:26.966Z,5.06
2022-11-15T02:09:53.201Z,5.09
2022-11-15T02:12:20.052Z,5.03
2022-11-15T02:14:47.700Z,4.98
2022-11-15T02:17:29.809Z,5.05
2022-11-15T02:20:07.651Z,5.17
2022-11-15T02:22:39.884Z,5.16
2022-11-15T02:25:15.186Z,5.06
2022-11-15T02:28:02.484Z,5.04
2022-11-15T02:30:45.900Z,5.09
2022-11-15T02:33:18.744Z,5.05
2022-11-15T02:35:46.858Z,4.97
2022-11-15T02:38:13.015Z,4.85
2022-11-15T02:40:41.809Z,4.77
2022-11-15T02:43:09.325Z,4.73
2022-11-15T02:45:36.808Z,4.71
2022-11-15T02:48:03.055Z,4.63
2022-11-15T02:50:29.505Z,5.00
2022-11-15T02:52:55.756Z,4.65
2022-11-15T02:55:31.905Z,4.55
2022-11-15T02:57:58.084Z,4.39
2022-11-15T03:00:24.276Z,4.38
2022-11-15T03:03:22.692Z,4.31
2022-11-15T03:06:01.312Z,4.36
2022-11-15T03:08:35.790Z,4.36
2022-11-15T03:11:01.945Z,4.35
2022-11-15T03:13:29.212Z,4.39
2022-11-15T03:16:01.449Z,4.33
2022-11-15T03:18:34.653Z,4.33
2022-11-15T03:21:01.197Z,4.35
2022-11-15T03:23:27.411Z,4.19
2022-11-15T03:25:53.608Z,4.17
2022-11-15T03:28:21.569Z,4.16
2022-11-15T03:30:47.782Z,4.18
2022-11-15T03:33:13.988Z,4.25
2022-11-15T03:35:41.177Z,4.27
2022-11-15T03:38:18.364Z,4.17
2022-11-15T03:41:00.905Z,3.90
2022-11-15T03:43:36.240Z,3.92
2022-11-15T03:46:07.454Z,3.78
2022-11-15T03:48:38.464Z,3.71
2022-11-15T03:51:04.698Z,3.62
2022-11-15T03:53:31.204Z,3.59
2022-11-15T03:55:57.638Z,3.74
2022-11-15T03:58:23.840Z,3.74
2022-11-15T04:00:50.102Z,3.51
2022-11-15T04:03:16.393Z,3.40
2022-11-15T04:05:42.603Z,3.43
2022-11-15T04:08:08.822Z,3.59
2022-11-15T04:10:35.029Z,3.50
2022-11-15T04:13:02.533Z,3.32
2022-11-15T04:15:28.838Z,3.27
2022-11-15T04:17:55.611Z,3.29
2022-11-15T04:20:22.837Z,3.33
2022-11-15T04:22:49.054Z,3.44
2022-11-15T04:25:18.407Z,3.36
2022-11-15T04:27:46.873Z,3.06
2022-11-15T04:30:13.079Z,3.31
2022-11-15T04:32:39.289Z,3.20
2022-11-15T04:35:05.528Z,3.24
2022-11-15T04:37:31.740Z,3.20
2022-11-15T04:39:57.931Z,2.93
2022-11-15T04:42:24.138Z,2.91
2022-11-15T04:44:50.332Z,2.69
2022-11-15T04:47:16.541Z,2.85
2022-11-15T04:49:42.736Z,2.77
2022-11-15T04:52:08.949Z,2.76
2022-11-15T04:54:35.147Z,2.88
2022-11-15T04:57:01.365Z,2.95
2022-11-15T04:59:27.577Z,2.84
2022-11-15T05:01:53.784Z,2.54
2022-11-15T05:04:20.003Z,2.78
2022-11-15T05:06:46.997Z,2.73
2022-11-15T05:09:13.220Z,2.76
2022-11-15T05:11:39.462Z,2.97
2022-11-15T05:14:05.659Z,2.93
2022-11-15T05:16:31.881Z,2.85
2022-11-15T05:18:58.098Z,2.90
2022-11-15T05:21:24.311Z,2.62
2022-11-15T05:23:50.524Z,2.55
2022-11-15T05:26:17.062Z,2.72
2022-11-15T05:28:43.284Z,2.70
2022-11-15T05:31:10.430Z,2.74
2022-11-15T05:33:36.885Z,2.69
2022-11-15T05:36:06.016Z,2.73
2022-11-15T05:38:32.318Z,2.76
2022-11-15T05:40:58.521Z,2.82
2022-11-15T05:43:24.740Z,2.64
2022-11-15T05:45:50.949Z,2.62
2022-11-15T05:48:17.166Z,2.69
2022-11-15T05:50:43.700Z,2.70
2022-11-15T05:53:10.436Z,2.77
2022-11-15T05:55:37.623Z,2.73
2022-11-15T05:58:03.842Z,2.71
2022-11-15T06:00:30.036Z,2.52
2022-11-15T06:02:56.240Z,2.51
2022-11-15T06:05:22.450Z,2.58
2022-11-15T06:07:48.666Z,2.67
2022-11-15T06:10:14.864Z,2.84
2022-11-15T06:12:41.077Z,2.90
2022-11-15T06:15:07.532Z,2.98
2022-11-15T06:17:33.750Z,2.71
2022-11-15T06:19:59.958Z,2.85
2022-11-15T06:22:26.159Z,2.79
2022-11-15T06:24:52.352Z,2.90
2022-11-15T06:27:18.555Z,2.98
2022-11-15T06:29:44.748Z,2.93
2022-11-15T06:32:11.046Z,3.00
2022-11-15T06:34:37.253Z,3.09
2022-11-15T06:37:03.517Z,3.25
2022-11-15T06:39:29.727Z,3.30
2022-11-15T06:41:55.923Z,3.42
2022-11-15T06:44:22.139Z,3.37
2022-11-15T06:46:48.346Z,3.40
2022-11-15T06:49:14.560Z,3.49
2022-11-15T06:51:40.770Z,3.52
2022-11-15T06:54:06.980Z,3.58
2022-11-15T06:56:34.248Z,3.63
2022-11-15T06:59:00.477Z,3.67
2022-11-15T07:01:26.731Z,3.71
2022-11-15T07:03:52.996Z,3.80
2022-11-15T07:06:19.206Z,3.88
2022-11-15T07:08:45.428Z,3.96
2022-11-15T07:11:11.635Z,4.01
2022-11-15T07:13:37.850Z,4.09
2022-11-15T07:16:04.709Z,4.17
2022-11-15T07:18:30.915Z,4.25
2022-11-15T07:21:00.680Z,4.32
2022-11-15T07:23:26.892Z,4.30
2022-11-15T07:25:53.083Z,4.36
2022-11-15T07:28:19.476Z,4.38
2022-11-15T07:30:45.873Z,4.35
2022-11-15T07:33:12.075Z,4.41
2022-11-15T07:35:38.495Z,4.51
2022-11-15T07:38:04.758Z,4.61
2022-11-15T07:40:31.350Z,4.67
2022-11-15T07:43:04.895Z,4.68
2022-11-15T07:45:31.105Z,4.65
2022-11-15T07:47:57.314Z,4.72
2022-11-15T07:50:23.968Z,4.82
2022-11-15T07:52:57.298Z,4.88
2022-11-15T07:55:23.929Z,4.93
2022-11-15T07:57:50.154Z,5.04
2022-11-15T08:00:16.560Z,5.07
2022-11-15T08:02:42.935Z,5.14
2022-11-15T08:05:09.281Z,5.20
2022-11-15T08:07:35.570Z,5.24
2022-11-15T08:10:01.845Z,5.33
2022-11-15T08:12:28.588Z,5.39
2022-11-15T08:14:55.184Z,5.43
2022-11-15T08:17:21.391Z,5.49
2022-11-15T08:19:47.589Z,5.53
2022-11-15T08:22:13.803Z,5.56
2022-11-15T08:24:39.997Z,5.58
2022-11-15T08:27:06.274Z,5.66
2022-11-15T08:29:32.501Z,5.71
2022-11-15T08:31:58.697Z,5.77
2022-11-15T08:34:24.904Z,5.88
2022-11-15T08:36:51.126Z,5.93
2022-11-15T08:39:17.344Z,5.97
2022-11-15T08:41:43.553Z,6.12
2022-11-15T08:44:09.762Z,6.21
2022-11-15T08:46:35.960Z,6.31
2022-11-15T08:49:02.168Z,6.39
2022-11-15T08:51:28.369Z,6.49
2022-11-15T08:53:54.576Z,6.66
2022-11-15T08:56:20.768Z,6.81
2022-11-15T08:58:46.976Z,6.94
2022-11-15T09:01:19.951Z,7.06
2022-11-15T09:03:46.321Z,7.18
2022-11-15T09:06:12.861Z,7.31
2022-11-15T09:08:48.255Z,7.40
2022-11-15T09:11:14.749Z,7.46
2022-11-15T09:13:40.964Z,7.52
2022-11-15T09:16:07.313Z,7.68
2022-11-15T09:18:52.119Z,7.95
2022-11-15T09:21:18.560Z,7.86
2022-11-15T09:23:44.780Z,7.83
2022-11-15T09:26:10.987Z,7.89
2022-11-15T09:28:37.213Z,8.02
2022-11-15T09:31:04.002Z,8.17
2022-11-15T09:33:30.669Z,8.27
2022-11-15T09:36:04.197Z,8.32
2022-11-15T09:38:30.927Z,8.33
2022-11-15T09:41:12.629Z,8.39
2022-11-15T09:43:50.942Z,8.36
2022-11-15T09:46:26.270Z,8.31
2022-11-15T09:48:53.478Z,8.34
2022-11-15T09:51:38.809Z,8.40
2022-11-15T09:56:52.423Z,8.65
2022-11-15T09:59:21.677Z,8.83
2022-11-15T10:02:06.630Z,9.05
2022-11-15T10:04:32.842Z,9.00
2022-11-15T10:07:02.788Z,8.82
2022-11-15T10:09:37.174Z,8.98
2022-11-15T10:12:03.435Z,8.95
2022-11-15T10:14:29.758Z,8.81
2022-11-15T10:17:01.993Z,8.91
2022-11-15T10:19:47.055Z,9.03
2022-11-15T10:22:18.944Z,8.95
2022-11-15T10:24:45.555Z,9.22
2022-11-15T10:27:12.460Z,9.38
2022-11-15T10:29:42.926Z,9.40
2022-11-15T10:32:10.078Z,9.54
2022-11-15T10:34:36.341Z,9.47
2022-11-15T10:37:02.550Z,9.48
2022-11-15T10:39:28.810Z,9.56
2022-11-15T10:41:55.049Z,9.80
2022-11-15T10:44:27.878Z,9.75
2022-11-15T10:46:57.089Z,9.91
2022-11-15T10:49:27.273Z,10.06
2022-11-15T10:52:01.200Z,10.11
2022-11-15T10:54:31.629Z,10.21
2022-11-15T10:56:59.526Z,10.11
2022-11-15T10:59:37.654Z,10.07
2022-11-15T11:02:23.973Z,10.12
2022-11-15T11:04:50.889Z,10.24
2022-11-15T11:07:21.315Z,10.37
2022-11-15T11:09:48.109Z,10.40
2022-11-15T11:12:14.331Z,10.40
2022-11-15T11:14:40.529Z,10.47
2022-11-15T11:17:24.408Z,10.68
2022-11-15T11:19:50.666Z,10.67
2022-11-15T11:22:35.815Z,10.67
2022-11-15T11:25:05.187Z,10.64
2022-11-15T11:27:37.355Z,10.71
2022-11-15T11:30:19.824Z,10.77
2022-11-15T11:32:54.993Z,10.76
2022-11-15T11:35:30.482Z,10.57
2022-11-15T11:38:16.935Z,10.59
2022-11-15T11:40:58.079Z,10.57
2022-11-15T11:43:36.486Z,10.50
2022-11-15T11:46:02.718Z,10.58
2022-11-15T11:48:29.031Z,10.51
2022-11-15T11:50:57.597Z,10.44
2022-11-15T11:53:36.577Z,10.41
2022-11-15T11:56:10.039Z,10.44
2022-11-15T11:58:40.496Z,10.40
2022-11-15T12:01:23.070Z,10.40
2022-11-15T12:04:00.688Z,10.43
2022-11-15T12:06:26.854Z,10.41
2022-11-15T12:09:03.278Z,10.38
2022-11-15T12:11:43.965Z,10.38
2022-11-15T12:14:13.058Z,10.44
2022-11-15T12:16:39.274Z,10.54
2022-11-15T12:19:05.529Z,10.51
2022-11-15T12:21:37.434Z,10.59
2022-11-15T12:24:05.972Z,10.50
2022-11-15T12:26:33.839Z,10.46
2022-11-15T12:29:07.340Z,10.50
2022-11-15T12:31:38.376Z,10.44
2022-11-15T12:34:07.584Z,10.40
2022-11-15T12:36:38.346Z,10.44
2022-11-15T12:39:05.417Z,10.48
2022-11-15T12:41:35.128Z,10.49
2022-11-15T12:44:01.391Z,10.46
2022-11-15T12:46:30.589Z,10.41
2022-11-15T12:48:57.796Z,10.39
2022-11-15T12:51:42.488Z,10.36
2022-11-15T12:54:23.702Z,10.29
2022-11-15T12:57:05.251Z,10.25
2022-11-15T12:59:50.702Z,10.27
2022-11-15T13:02:21.092Z,10.26
2022-11-15T13:04:47.391Z,10.19
2022-11-15T13:07:32.538Z,10.15
2022-11-15T13:09:58.796Z,10.11
2022-11-15T13:12:28.052Z,10.06
2022-11-15T13:14:57.717Z,10.08
2022-11-15T13:17:27.020Z,10.03
2022-11-15T13:19:54.600Z,9.98
2022-11-15T13:22:20.807Z,10.00
2022-11-15T13:24:47.003Z,9.89
2022-11-15T13:27:16.680Z,9.85
2022-11-15T13:29:44.054Z,9.82
2022-11-15T13:32:14.061Z,9.84
2022-11-15T13:34:55.520Z,9.87
2022-11-15T13:37:21.788Z,9.85
2022-11-15T13:39:48.604Z,9.86
2022-11-15T13:42:15.406Z,9.83
2022-11-15T13:44:41.609Z,9.79
2022-11-15T13:47:13.336Z,9.78
2022-11-15T13:49:39.643Z,9.77
2022-11-15T13:52:06.985Z,9.71
2022-11-15T13:54:36.424Z,9.70
2022-11-15T13:57:03.920Z,9.66
2022-11-15T13:59:37.150Z,9.56
2022-11-15T14:02:04.693Z,9.49
2022-11-15T14:04:31.005Z,9.43
2022-11-15T14:06:57.946Z,9.38
2022-11-15T14:09:37.133Z,9.32
2022-11-15T14:12:04.072Z,9.29
2022-11-15T14:14:30.695Z,9.16
2022-11-15T14:16:57.940Z,9.08
2022-11-15T14:19:24.121Z,9.07
2022-11-15T14:22:09.212Z,9.01
2022-11-15T14:24:35.492Z,8.93
2022-11-15T14:27:23.025Z,8.92
2022-11-15T14:29:49.338Z,8.85
2022-11-15T14:32:15.701Z,8.87
2022-11-15T14:34:42.075Z,8.87
2022-11-15T14:37:19.367Z,8.79
2022-11-15T14:39:45.646Z,8.71
2022-11-15T14:42:11.856Z,8.58
2022-11-15T14:44:40.197Z,8.54
2022-11-15T14:47:09.676Z,8.49
2022-11-15T14:49:35.884Z,8.50
2022-11-15T14:52:02.296Z,8.43
2022-11-15T14:54:28.517Z,8.32
2022-11-15T14:56:54.710Z,8.35
2022-11-15T14:59:20.936Z,8.29
2022-11-15T15:01:47.147Z,8.30
2022-11-15T15:04:13.360Z,8.26
2022-11-15T15:06:39.657Z,8.18
2022-11-15T15:09:05.912Z,8.19
2022-11-15T15:11:32.189Z,8.06
2022-11-15T15:13:58.469Z,8.05
2022-11-15T15:16:24.909Z,8.08
2022-11-15T15:18:51.126Z,7.95
2022-11-15T15:21:29.895Z,7.89
2022-11-15T15:23:59.998Z,7.82
2022-11-15T15:26:26.213Z,7.80
2022-11-15T15:28:52.433Z,7.74
2022-11-15T15:31:18.871Z,7.69
2022-11-15T15:33:45.081Z,7.71
2022-11-15T15:36:11.719Z,7.68
2022-11-15T15:38:37.921Z,7.65
2022-11-15T15:41:04.135Z,7.66
2022-11-15T15:43:30.343Z,7.71
2022-11-15T15:45:56.561Z,7.70
2022-11-15T15:48:22.765Z,7.67
2022-11-15T15:50:49.029Z,7.63
2022-11-15T15:53:15.228Z,7.66
2022-11-15T15:55:41.471Z,7.67
2022-11-15T15:58:09.473Z,7.69
2022-11-15T16:00:35.865Z,7.70
2022-11-15T16:03:02.076Z,7.69
2022-11-15T16:05:28.278Z,7.63
2022-11-15T16:07:54.471Z,7.62
2022-11-15T16:10:24.532Z,7.65
2022-11-15T16:12:50.735Z,7.61
2022-11-15T16:15:17.946Z,7.72
2022-11-15T16:17:53.225Z,7.64
2022-11-15T16:20:28.592Z,7.61
2022-11-15T16:22:54.884Z,7.57
2022-11-15T16:25:21.112Z,7.55
2022-11-15T16:27:47.413Z,7.54
2022-11-15T16:30:15.004Z,7.51
2022-11-15T16:32:41.345Z,7.52
2022-11-15T16:35:08.400Z,7.49
2022-11-15T16:37:34.601Z,7.47
2022-11-15T16:40:01.407Z,7.45
2022-11-15T16:42:27.810Z,7.40
2022-11-15T16:44:54.018Z,7.36
2022-11-15T16:47:20.331Z,7.34
2022-11-15T16:49:47.038Z,7.31
2022-11-15T16:52:15.508Z,7.27
2022-11-15T16:54:45.075Z,7.32
2022-11-15T16:57:11.288Z,7.18
2022-11-15T16:59:38.577Z,7.14
2022-11-15T17:02:05.561Z,7.14
2022-11-15T17:04:31.769Z,7.12
2022-11-15T17:06:58.095Z,7.06
2022-11-15T17:09:24.348Z,7.02
2022-11-15T17:11:50.850Z,7.02
2022-11-15T17:14:17.052Z,6.98
2022-11-15T17:16:43.251Z,6.95
2022-11-15T17:19:16.231Z,6.95
2022-11-15T17:21:42.650Z,6.93
2022-11-15T17:24:08.856Z,6.93
2022-11-15T17:26:40.341Z,6.85
2022-11-15T17:29:07.098Z,6.82
2022-11-15T17:31:33.941Z,6.81
2022-11-15T17:34:00.950Z,6.78
2022-11-15T17:36:27.233Z,6.78
2022-11-15T17:38:59.124Z,6.76
2022-11-15T17:41:25.860Z,6.71
2022-11-15T17:43:52.091Z,6.71
2022-11-15T17:46:18.936Z,6.73
2022-11-15T17:48:45.424Z,6.69
2022-11-15T17:51:12.449Z,6.70
2022-11-15T17:53:39.281Z,6.66
2022-11-15T17:56:08.849Z,6.68
2022-11-15T17:58:35.134Z,6.67
2022-11-15T18:01:10.483Z,6.74
2022-11-15T18:03:36.900Z,6.74
2022-11-15T18:06:06.434Z,6.71
2022-11-15T18:08:32.817Z,6.68
2022-11-15T18:11:03.765Z,6.67
2022-11-15T18:13:30.275Z,6.66
2022-11-15T18:15:56.745Z,6.67
2022-11-15T18:18:22.949Z,6.65
2022-11-15T18:20:49.213Z,6.60
2022-11-15T18:23:16.307Z,6.57
2022-11-15T18:25:42.529Z,6.52
2022-11-15T18:28:08.724Z,6.53
2022-11-15T18:30:34.947Z,6.54
2022-11-15T18:33:01.140Z,6.60
2022-11-15T18:35:27.353Z,6.56
2022-11-15T18:37:53.551Z,6.56
2022-11-15T18:40:19.828Z,6.57
2022-11-15T18:42:46.514Z,6.55
2022-11-15T18:45:12.732Z,6.56
2022-11-15T18:47:38.928Z,6.56
2022-11-15T18:50:05.358Z,6.50
2022-11-15T18:52:31.581Z,6.48
2022-11-15T18:54:57.850Z,6.45
2022-11-15T18:57:24.194Z,6.43
2022-11-15T18:59:50.410Z,6.43
2022-11-15T19:02:16.644Z,6.36
2022-11-15T19:04:42.873Z,6.37
2022-11-15T19:07:09.129Z,6.35
2022-11-15T19:09:35.408Z,6.36
2022-11-15T19:12:01.633Z,6.41
2022-11-15T19:14:27.952Z,6.38
2022-11-15T19:16:54.179Z,6.39
2022-11-15T19:19:23.932Z,6.37
2022-11-15T19:21:50.380Z,6.36
2022-11-15T19:24:16.567Z,6.42
2022-11-15T19:26:42.843Z,6.41
2022-11-15T19:29:09.318Z,6.43
2022-11-15T19:31:35.549Z,6.41
2022-11-15T19:34:02.286Z,6.47
2022-11-15T19:36:29.174Z,6.46
2022-11-15T19:38:55.572Z,6.45
2022-11-15T19:41:22.269Z,6.48
2022-11-15T19:43:48.520Z,6.48
2022-11-15T19:46:14.930Z,6.55
2022-11-15T19:48:41.177Z,6.52
2022-11-15T19:51:10.984Z,6.52
2022-11-15T19:53:37.630Z,6.50
2022-11-15T19:56:08.193Z,6.51
2022-11-15T19:58:34.398Z,6.48
2022-11-15T20:01:04.693Z,6.45
2022-11-15T20:03:31.479Z,6.48
2022-11-15T20:06:07.849Z,6.43
2022-11-15T20:08:34.424Z,6.43
2022-11-15T20:11:00.876Z,6.46
2022-11-15T20:13:27.304Z,6.41
2022-11-15T20:15:53.587Z,6.38
2022-11-15T20:18:20.058Z,6.43
2022-11-15T20:20:46.360Z,6.45
2022-11-15T20:23:12.611Z,6.35
2022-11-15T20:25:38.967Z,6.36
2022-11-15T20:28:05.536Z,6.29
2022-11-15T20:30:32.085Z,6.30
2022-11-15T20:32:58.292Z,6.25
2022-11-15T20:35:24.499Z,6.26
2022-11-15T20:37:50.724Z,6.28
2022-11-15T20:40:16.938Z,6.29
2022-11-15T20:42:43.155Z,6.22
2022-11-15T20:45:09.502Z,6.21
2022-11-15T20:47:35.709Z,6.17
2022-11-15T20:50:20.857Z,6.16
2022-11-15T20:52:48.101Z,6.15
2022-11-15T20:55:14.321Z,6.13
2022-11-15T20:57:40.531Z,6.14
2022-11-15T21:00:07.103Z,6.14
2022-11-15T21:02:33.348Z,6.09
2022-11-15T21:04:59.586Z,6.06
2022-11-15T21:07:25.914Z,6.02
2022-11-15T21:09:52.220Z,5.94
2022-11-15T21:12:18.569Z,5.93
2022-11-15T21:14:44.833Z,5.89
2022-11-15T21:17:11.050Z,5.99
2022-11-15T21:19:37.312Z,5.97
2022-11-15T21:22:03.625Z,5.92
2022-11-15T21:24:29.844Z,5.94
2022-11-15T21:26:56.061Z,5.94
2022-11-15T21:29:22.266Z,5.96
2022-11-15T21:31:48.813Z,5.97
2022-11-15T21:34:15.038Z,6.07
2022-11-15T21:36:41.428Z,6.02
2022-11-15T21:39:07.634Z,5.97
2022-11-15T21:41:33.965Z,6.01
2022-11-15T21:44:00.403Z,5.99
2022-11-15T21:46:26.670Z,6.02
2022-11-15T21:48:52.880Z,6.07
2022-11-15T21:51:19.078Z,6.01
2022-11-15T21:53:45.288Z,6.05
2022-11-15T21:56:11.491Z,6.04
2022-11-15T21:58:37.992Z,6.02
2022-11-15T22:01:04.266Z,6.07
2022-11-15T22:03:30.680Z,6.09
2022-11-15T22:05:56.884Z,6.12
2022-11-15T22:08:23.269Z,6.14
2022-11-15T22:10:49.588Z,6.17
2022-11-15T22:13:16.165Z,6.18
2022-11-15T22:15:45.853Z,6.12
2022-11-15T22:18:12.290Z,6.20
2022-11-15T22:20:44.608Z,6.25
2022-11-15T22:23:11.467Z,6.22
2022-11-15T22:25:37.719Z,6.21
2022-11-15T22:28:03.996Z,6.22
2022-11-15T22:30:30.258Z,6.28
2022-11-15T22:32:56.499Z,6.30
2022-11-15T22:35:22.707Z,6.27
2022-11-15T22:37:48.930Z,6.29
2022-11-15T22:40:15.154Z,6.31
2022-11-15T22:42:41.374Z,6.33
2022-11-15T22:45:07.663Z,6.33
2022-11-15T22:47:33.878Z,6.29
2022-11-15T22:50:00.075Z,6.32
2022-11-15T22:52:26.307Z,6.33
2022-11-15T22:54:52.512Z,6.33
2022-11-15T22:57:18.729Z,6.36
2022-11-15T22:59:44.957Z,6.36
2022-11-15T23:02:11.162Z,6.40
2022-11-15T23:04:37.395Z,6.37
2022-11-15T23:07:03.731Z,6.40
2022-11-15T23:09:30.007Z,6.40
2022-11-15T23:11:56.211Z,6.43
2022-11-15T23:14:22.429Z,6.41
2022-11-15T23:16:48.640Z,6.51
2022-11-15T23:19:14.853Z,6.40
2022-11-15T23:21:42.040Z,6.39
2022-11-15T23:24:08.981Z,6.42
2022-11-15T23:26:35.177Z,6.41
2022-11-15T23:29:01.403Z,6.42
2022-11-15T23:31:27.605Z,6.45
2022-11-15T23:33:53.816Z,6.45
2022-11-15T23:36:20.024Z,6.42
2022-11-15T23:38:46.237Z,6.42
2022-11-15T23:41:12.436Z,6.42
2022-11-15T23:43:38.641Z,6.49
2022-11-15T23:46:04.847Z,6.46
2022-11-15T23:48:31.384Z,6.47
2022-11-15T23:50:57.799Z,6.46
2022-11-15T23:53:24.041Z,6.45
2022-11-15T23:55:54.258Z,6.46
2022-11-15T23:58:20.453Z,6.45
